createdAt,value
2018-05-02T00:00:16.036Z,86.91
2018-05-02T00:01:16.016Z,87.20
2018-05-02T00:02:15.993Z,87.11
2018-05-02T00:03:15.977Z,87.20
2018-05-02T00:04:15.953Z,86.82
2018-05-02T00:05:15.940Z,87.01
2018-05-02T00:06:15.926Z,87.39
2018-05-02T00:07:15.897Z,87.11
2018-05-02T00:08:15.874Z,87.11
2018-05-02T00:09:15.859Z,86.63
2018-05-02T00:10:15.840Z,86.35
2018-05-02T00:11:15.817Z,86.35
2018-05-02T00:12:15.799Z,86.35
2018-05-02T00:13:15.779Z,86.54
2018-05-02T00:14:15.760Z,86.44
2018-05-02T00:15:15.737Z,86.25
2018-05-02T00:16:15.718Z,86.25
2018-05-02T00:17:15.694Z,86.16
2018-05-02T00:18:15.675Z,86.07
2018-05-02T00:19:15.658Z,86.25
2018-05-02T00:20:15.639Z,86.82
2018-05-02T00:21:15.619Z,86.07
2018-05-02T00:22:15.597Z,86.39
2018-05-02T00:23:15.578Z,86.25
2018-05-02T00:24:15.558Z,86.49
2018-05-02T00:25:15.539Z,85.78
2018-05-02T00:26:15.517Z,85.59
2018-05-02T00:27:15.498Z,85.87
2018-05-02T00:28:15.478Z,85.78
2018-05-02T00:29:15.457Z,85.87
2018-05-02T00:30:15.444Z,86.16
2018-05-02T00:31:15.426Z,86.35
2018-05-02T00:32:15.398Z,86.07
2018-05-02T00:33:15.381Z,85.78
2018-05-02T00:34:15.358Z,85.97
2018-05-02T00:35:15.344Z,86.07
2018-05-02T00:36:15.318Z,85.97
2018-05-02T00:37:15.301Z,86.35
2018-05-02T00:38:15.282Z,86.63
2018-05-02T00:39:15.260Z,86.72
2018-05-02T00:40:15.241Z,86.82
2018-05-02T00:41:15.221Z,87.01
2018-05-02T00:42:15.202Z,86.82
2018-05-02T00:43:15.185Z,87.30
2018-05-02T00:44:15.163Z,87.39
2018-05-02T00:45:15.146Z,87.77
2018-05-02T00:46:15.122Z,87.68
2018-05-02T00:47:15.106Z,87.77
2018-05-02T00:48:15.083Z,88.43
2018-05-02T00:49:15.065Z,88.24
2018-05-02T00:50:15.060Z,88.62
2018-05-02T00:51:15.033Z,88.62
2018-05-02T00:52:15.004Z,88.24
2018-05-02T00:53:14.984Z,87.58
2018-05-02T00:54:14.964Z,87.58
2018-05-02T00:55:14.948Z,87.87
2018-05-02T00:56:14.931Z,87.77
2018-05-02T00:57:14.907Z,87.39
2018-05-02T00:58:14.885Z,87.49
2018-05-02T00:59:14.868Z,88.24
2018-05-02T01:00:14.846Z,88.15
2018-05-02T01:01:14.825Z,87.96
2018-05-02T01:02:14.806Z,88.01
2018-05-02T01:03:14.788Z,88.01
2018-05-02T01:04:14.768Z,88.53
2018-05-02T01:05:14.749Z,88.48
2018-05-02T01:06:14.726Z,88.58
2018-05-02T01:07:14.704Z,88.96
2018-05-02T01:08:14.687Z,88.48
2018-05-02T01:09:14.664Z,88.29
2018-05-02T01:10:14.644Z,88.77
2018-05-02T01:11:14.624Z,89.15
2018-05-02T01:12:14.605Z,89.06
2018-05-02T01:13:14.582Z,88.96
2018-05-02T01:14:14.565Z,88.58
2018-05-02T01:15:14.560Z,89.53
2018-05-02T01:16:14.529Z,89.53
2018-05-02T01:17:14.509Z,89.15
2018-05-02T01:18:14.488Z,89.34
2018-05-02T01:19:14.462Z,89.34
2018-05-02T01:20:14.455Z,89.34
2018-05-02T01:21:14.429Z,89.43
2018-05-02T01:22:14.411Z,89.06
2018-05-02T01:23:14.390Z,89.53
2018-05-02T01:24:14.372Z,89.15
2018-05-02T01:25:14.351Z,88.87
2018-05-02T01:26:14.331Z,89.25
2018-05-02T01:27:14.309Z,89.91
2018-05-02T01:28:14.289Z,89.86
2018-05-02T01:29:14.269Z,89.95
2018-05-02T01:30:14.244Z,90.00
2018-05-02T01:31:14.229Z,89.00
2018-05-02T01:32:14.204Z,89.58
2018-05-02T01:33:14.193Z,89.67
2018-05-02T01:34:14.170Z,90.67
2018-05-02T01:35:14.148Z,90.05
2018-05-02T01:36:14.128Z,90.19
2018-05-02T01:37:14.109Z,90.05
2018-05-02T01:38:14.088Z,90.05
2018-05-02T01:39:14.072Z,89.86
2018-05-02T01:40:14.056Z,89.86
2018-05-02T01:41:14.028Z,89.39
2018-05-02T01:42:14.010Z,89.10
2018-05-02T01:43:13.984Z,89.48
2018-05-02T01:44:13.963Z,89.58
2018-05-02T01:45:13.961Z,89.20
2018-05-02T01:46:13.927Z,89.20
2018-05-02T01:47:13.909Z,89.20
2018-05-02T01:48:13.888Z,89.29
2018-05-02T01:49:13.866Z,88.43
2018-05-02T01:50:13.849Z,88.91
2018-05-02T01:51:13.824Z,88.43
2018-05-02T01:52:13.805Z,87.77
2018-05-02T01:53:13.786Z,88.62
2018-05-02T01:54:13.766Z,88.43
2018-05-02T01:55:13.746Z,89.00
2018-05-02T01:56:13.725Z,89.15
2018-05-02T01:57:13.706Z,90.14
2018-05-02T01:58:13.688Z,89.67
2018-05-02T01:59:13.668Z,90.29
2018-05-02T02:00:13.647Z,90.67
2018-05-02T02:01:13.631Z,90.57
2018-05-02T02:02:13.604Z,90.57
2018-05-02T02:03:13.586Z,90.00
2018-05-02T02:04:13.565Z,89.86
2018-05-02T02:05:13.548Z,89.34
2018-05-02T02:06:13.526Z,89.43
2018-05-02T02:07:13.504Z,90.19
2018-05-02T02:08:13.485Z,89.72
2018-05-02T02:09:13.467Z,90.10
2018-05-02T02:10:13.446Z,90.19
2018-05-02T02:11:13.425Z,90.19
2018-05-02T02:12:13.404Z,89.72
2018-05-02T02:13:13.393Z,90.10
2018-05-02T02:14:13.371Z,90.19
2018-05-02T02:15:13.349Z,90.57
2018-05-02T02:16:13.326Z,90.57
2018-05-02T02:17:13.304Z,90.19
2018-05-02T02:18:13.294Z,90.29
2018-05-02T02:19:13.263Z,90.95
2018-05-02T02:20:13.249Z,90.10
2018-05-02T02:21:13.228Z,90.19
2018-05-02T02:22:13.207Z,90.38
2018-05-02T02:23:13.183Z,90.38
2018-05-02T02:24:13.161Z,89.81
2018-05-02T02:25:13.147Z,90.57
2018-05-02T02:26:13.129Z,90.19
2018-05-02T02:27:13.107Z,91.14
2018-05-02T02:28:13.083Z,91.42
2018-05-02T02:29:13.066Z,90.95
2018-05-02T02:30:13.043Z,90.67
2018-05-02T02:31:13.024Z,90.00
2018-05-02T02:32:13.006Z,90.10
2018-05-02T02:33:12.987Z,90.00
2018-05-02T02:34:12.964Z,90.38
2018-05-02T02:35:12.945Z,90.19
2018-05-02T02:36:12.926Z,90.38
2018-05-02T02:37:12.909Z,90.67
2018-05-02T02:38:12.887Z,90.86
2018-05-02T02:39:12.865Z,91.14
2018-05-02T02:40:12.843Z,90.86
2018-05-02T02:41:12.825Z,90.76
2018-05-02T02:42:12.803Z,90.00
2018-05-02T02:43:12.782Z,89.72
2018-05-02T02:44:12.768Z,89.72
2018-05-02T02:45:12.741Z,89.81
2018-05-02T02:46:12.724Z,90.00
2018-05-02T02:47:12.700Z,90.00
2018-05-02T02:48:12.678Z,90.57
2018-05-02T02:49:12.662Z,90.29
2018-05-02T02:50:12.649Z,90.57
2018-05-02T02:51:12.619Z,90.00
2018-05-02T02:52:12.598Z,89.81
2018-05-02T02:53:12.583Z,90.00
2018-05-02T02:54:12.558Z,89.62
2018-05-02T02:55:12.545Z,89.62
2018-05-02T02:56:12.517Z,90.57
2018-05-02T02:57:12.500Z,90.29
2018-05-02T02:58:12.479Z,90.38
2018-05-02T02:59:12.463Z,90.48
2018-05-02T03:00:12.438Z,90.38
2018-05-02T03:01:12.418Z,90.38
2018-05-02T03:02:12.399Z,90.10
2018-05-02T03:03:12.378Z,90.19
2018-05-02T03:04:12.368Z,90.67
2018-05-02T03:05:12.341Z,90.38
2018-05-02T03:06:12.319Z,90.29
2018-05-02T03:07:12.296Z,90.29
2018-05-02T03:08:12.276Z,90.67
2018-05-02T03:09:12.258Z,90.67
2018-05-02T03:10:12.236Z,90.76
2018-05-02T03:11:12.219Z,90.76
2018-05-02T03:12:12.199Z,90.86
2018-05-02T03:13:12.179Z,90.38
2018-05-02T03:14:12.160Z,91.14
2018-05-02T03:15:12.138Z,90.57
2018-05-02T03:16:12.117Z,90.38
2018-05-02T03:17:12.095Z,90.67
2018-05-02T03:18:12.078Z,90.48
2018-05-02T03:19:12.062Z,91.05
2018-05-02T03:20:12.036Z,90.95
2018-05-02T03:21:12.013Z,91.42
2018-05-02T03:22:12.000Z,91.24
2018-05-02T03:23:11.975Z,91.14
2018-05-02T03:24:11.950Z,91.42
2018-05-02T03:25:11.932Z,91.14
2018-05-02T03:26:11.916Z,90.86
2018-05-02T03:27:11.897Z,90.76
2018-05-02T03:28:11.874Z,91.14
2018-05-02T03:29:11.863Z,91.14
2018-05-02T03:30:11.832Z,90.67
2018-05-02T03:31:11.820Z,91.05
2018-05-02T03:32:11.793Z,91.14
2018-05-02T03:33:11.769Z,90.29
2018-05-02T03:34:11.754Z,89.81
2018-05-02T03:35:11.731Z,90.38
2018-05-02T03:36:11.713Z,90.48
2018-05-02T03:37:11.688Z,90.19
2018-05-02T03:38:11.673Z,90.29
2018-05-02T03:39:11.649Z,90.00
2018-05-02T03:40:11.629Z,90.29
2018-05-02T03:41:11.612Z,90.57
2018-05-02T03:42:11.591Z,90.48
2018-05-02T03:43:11.568Z,90.29
2018-05-02T03:44:11.547Z,90.38
2018-05-02T03:45:11.534Z,91.14
2018-05-02T03:46:11.507Z,91.66
2018-05-02T03:47:11.486Z,91.85
2018-05-02T03:48:11.467Z,92.42
2018-05-02T03:49:11.445Z,92.99
2018-05-02T03:50:11.430Z,92.90
2018-05-02T03:51:11.407Z,93.27
2018-05-02T03:52:11.397Z,93.37
2018-05-02T03:53:11.365Z,93.27
2018-05-02T03:54:11.351Z,93.27
2018-05-02T03:55:11.324Z,93.27
2018-05-02T03:56:11.301Z,94.04
2018-05-02T03:57:11.314Z,94.13
2018-05-02T03:58:11.263Z,93.94
2018-05-02T03:59:11.241Z,94.51
2018-05-02T04:00:11.222Z,93.94
2018-05-02T04:01:11.204Z,93.08
2018-05-02T04:02:11.179Z,93.37
2018-05-02T04:03:11.161Z,92.71
2018-05-02T04:04:11.140Z,92.71
2018-05-02T04:05:11.123Z,92.33
2018-05-02T04:06:11.104Z,91.85
2018-05-02T04:07:11.079Z,91.57
2018-05-02T04:08:11.057Z,92.04
2018-05-02T04:09:11.040Z,91.47
2018-05-02T04:10:11.021Z,92.42
2018-05-02T04:11:10.999Z,92.04
2018-05-02T04:12:10.977Z,91.85
2018-05-02T04:13:10.961Z,91.76
2018-05-02T04:14:10.939Z,92.23
2018-05-02T04:15:10.916Z,92.42
2018-05-02T04:16:10.903Z,91.95
2018-05-02T04:17:10.874Z,92.42
2018-05-02T04:18:10.856Z,92.42
2018-05-02T04:19:10.832Z,92.33
2018-05-02T04:20:10.812Z,92.33
2018-05-02T04:21:10.796Z,92.52
2018-05-02T04:22:10.771Z,92.71
2018-05-02T04:23:10.752Z,92.42
2018-05-02T04:24:10.730Z,92.23
2018-05-02T04:25:10.710Z,92.04
2018-05-02T04:26:10.746Z,92.14
2018-05-02T04:27:10.672Z,92.14
2018-05-02T04:28:10.652Z,92.14
2018-05-02T04:29:10.629Z,92.99
2018-05-02T04:30:10.606Z,93.27
2018-05-02T04:31:10.589Z,93.08
2018-05-02T04:32:10.574Z,93.27
2018-05-02T04:33:10.547Z,93.27
2018-05-02T04:34:10.527Z,94.13
2018-05-02T04:35:10.508Z,94.04
2018-05-02T04:36:10.488Z,94.23
2018-05-02T04:37:10.469Z,93.65
2018-05-02T04:38:10.450Z,93.56
2018-05-02T04:39:10.428Z,94.32
2018-05-02T04:40:10.409Z,94.13
2018-05-02T04:41:10.454Z,93.94
2018-05-02T04:42:10.360Z,94.13
2018-05-02T04:43:10.341Z,93.70
2018-05-02T04:44:10.322Z,92.61
2018-05-02T04:45:10.303Z,93.46
2018-05-02T04:46:10.281Z,93.46
2018-05-02T04:47:10.260Z,93.27
2018-05-02T04:48:10.239Z,93.75
2018-05-02T04:49:10.221Z,94.04
2018-05-02T04:50:10.198Z,94.32
2018-05-02T04:51:10.183Z,94.32
2018-05-02T04:52:10.159Z,94.32
2018-05-02T04:53:10.139Z,94.70
2018-05-02T04:54:10.119Z,94.23
2018-05-02T04:55:10.103Z,94.13
2018-05-02T04:56:10.071Z,93.51
2018-05-02T04:57:10.055Z,93.51
2018-05-02T04:58:10.035Z,93.80
2018-05-02T04:59:10.020Z,93.13
2018-05-02T05:00:09.997Z,93.51
2018-05-02T05:01:09.983Z,94.18
2018-05-02T05:02:09.955Z,93.99
2018-05-02T05:03:09.934Z,94.18
2018-05-02T05:04:09.912Z,93.89
2018-05-02T05:05:09.889Z,94.37
2018-05-02T05:06:09.871Z,93.80
2018-05-02T05:07:09.855Z,94.18
2018-05-02T05:08:09.829Z,94.18
2018-05-02T05:09:09.808Z,93.37
2018-05-02T05:10:09.789Z,93.51
2018-05-02T05:11:09.770Z,92.33
2018-05-02T05:12:09.750Z,91.94
2018-05-02T05:13:09.731Z,91.75
2018-05-02T05:14:09.707Z,92.04
2018-05-02T05:15:09.687Z,91.09
2018-05-02T05:16:09.668Z,91.09
2018-05-02T05:17:09.644Z,91.00
2018-05-02T05:18:09.623Z,91.00
2018-05-02T05:19:09.607Z,91.09
2018-05-02T05:20:09.590Z,91.09
2018-05-02T05:21:09.567Z,91.00
2018-05-02T05:22:09.544Z,90.43
2018-05-02T05:23:09.531Z,89.86
2018-05-02T05:24:09.509Z,90.62
2018-05-02T05:25:09.488Z,90.28
2018-05-02T05:26:09.466Z,90.19
2018-05-02T05:27:09.442Z,90.28
2018-05-02T05:28:09.442Z,91.04
2018-05-02T05:29:09.402Z,90.28
2018-05-02T05:30:09.388Z,90.09
2018-05-02T05:31:09.362Z,90.38
2018-05-02T05:32:09.348Z,91.04
2018-05-02T05:33:09.324Z,91.61
2018-05-02T05:34:09.301Z,92.28
2018-05-02T05:35:09.347Z,92.18
2018-05-02T05:36:09.270Z,91.71
2018-05-02T05:37:09.244Z,91.04
2018-05-02T05:38:09.224Z,91.42
2018-05-02T05:39:09.202Z,91.99
2018-05-02T05:40:09.180Z,91.33
2018-05-02T05:41:09.161Z,90.95
2018-05-02T05:42:09.145Z,90.76
2018-05-02T05:43:09.118Z,90.09
2018-05-02T05:44:09.102Z,91.04
2018-05-02T05:45:09.089Z,91.14
2018-05-02T05:46:09.063Z,90.95
2018-05-02T05:47:09.039Z,90.76
2018-05-02T05:48:09.026Z,90.57
2018-05-02T05:49:09.007Z,90.09
2018-05-02T05:50:08.984Z,90.66
2018-05-02T05:51:08.960Z,90.38
2018-05-02T05:52:08.943Z,89.38
2018-05-02T05:53:08.928Z,89.76
2018-05-02T05:54:09.086Z,89.67
2018-05-02T05:55:08.880Z,89.47
2018-05-02T05:56:08.861Z,89.57
2018-05-02T05:57:08.840Z,90.14
2018-05-02T05:58:08.822Z,89.76
2018-05-02T05:59:08.805Z,88.43
2018-05-02T06:00:08.781Z,88.24
2018-05-02T06:01:08.763Z,88.24
2018-05-02T06:02:08.748Z,89.38
2018-05-02T06:03:08.729Z,89.47
2018-05-02T06:04:08.700Z,88.62
2018-05-02T06:05:08.697Z,88.71
2018-05-02T06:06:08.661Z,88.43
2018-05-02T06:07:08.644Z,88.57
2018-05-02T06:08:08.620Z,88.28
2018-05-02T06:09:08.604Z,88.85
2018-05-02T06:10:08.584Z,87.90
2018-05-02T06:11:08.563Z,88.09
2018-05-02T06:12:08.541Z,88.28
2018-05-02T06:13:08.526Z,87.81
2018-05-02T06:14:08.502Z,87.34
2018-05-02T06:15:08.491Z,87.24
2018-05-02T06:16:08.463Z,87.90
2018-05-02T06:17:08.447Z,86.95
2018-05-02T06:18:08.423Z,86.57
2018-05-02T06:19:08.402Z,86.47
2018-05-02T06:20:08.381Z,86.67
2018-05-02T06:21:08.376Z,87.05
2018-05-02T06:22:08.350Z,86.76
2018-05-02T06:23:08.319Z,86.19
2018-05-02T06:24:08.304Z,86.76
2018-05-02T06:25:08.283Z,87.43
2018-05-02T06:26:08.269Z,87.34
2018-05-02T06:27:08.242Z,86.80
2018-05-02T06:28:08.225Z,85.76
2018-05-02T06:29:08.202Z,85.57
2018-05-02T06:30:08.186Z,85.28
2018-05-02T06:31:08.167Z,85.38
2018-05-02T06:32:08.146Z,85.57
2018-05-02T06:33:08.130Z,84.33
2018-05-02T06:34:08.109Z,84.33
2018-05-02T06:35:08.085Z,83.39
2018-05-02T06:36:08.073Z,82.71
2018-05-02T06:37:08.050Z,82.43
2018-05-02T06:38:08.032Z,83.58
2018-05-02T06:39:08.016Z,84.24
2018-05-02T06:40:07.988Z,84.14
2018-05-02T06:41:07.970Z,84.33
2018-05-02T06:42:07.947Z,85.10
2018-05-02T06:43:07.928Z,83.86
2018-05-02T06:44:07.909Z,84.66
2018-05-02T06:45:07.888Z,83.52
2018-05-02T06:46:07.870Z,82.38
2018-05-02T06:47:07.859Z,81.90
2018-05-02T06:48:07.830Z,81.81
2018-05-02T06:49:07.850Z,81.52
2018-05-02T06:50:07.794Z,80.95
2018-05-02T06:51:07.770Z,81.81
2018-05-02T06:52:07.753Z,81.14
2018-05-02T06:53:07.729Z,81.33
2018-05-02T06:54:07.713Z,82.00
2018-05-02T06:55:07.691Z,82.51
2018-05-02T06:56:07.682Z,82.51
2018-05-02T06:57:07.650Z,82.42
2018-05-02T06:58:07.629Z,81.76
2018-05-02T06:59:07.615Z,80.23
2018-05-02T07:00:07.598Z,80.33
2018-05-02T07:01:07.578Z,80.71
2018-05-02T07:02:07.552Z,80.04
2018-05-02T07:03:07.535Z,79.57
2018-05-02T07:04:07.513Z,79.66
2018-05-02T07:05:07.507Z,78.80
2018-05-02T07:06:07.480Z,79.51
2018-05-02T07:07:07.519Z,79.22
2018-05-02T07:08:07.439Z,78.56
2018-05-02T07:09:07.419Z,78.46
2018-05-02T07:10:07.400Z,80.46
2018-05-02T07:11:07.388Z,79.22
2018-05-02T07:12:07.360Z,78.27
2018-05-02T07:13:07.339Z,78.46
2018-05-02T07:14:07.324Z,79.03
2018-05-02T07:15:07.299Z,77.80
2018-05-02T07:16:07.286Z,77.22
2018-05-02T07:17:07.267Z,77.89
2018-05-02T07:18:07.246Z,78.22
2018-05-02T07:19:07.229Z,77.83
2018-05-02T07:20:07.206Z,76.88
2018-05-02T07:21:07.197Z,77.17
2018-05-02T07:22:07.164Z,76.79
2018-05-02T07:23:07.146Z,76.03
2018-05-02T07:24:07.224Z,77.01
2018-05-02T07:25:07.112Z,75.07
2018-05-02T07:26:07.094Z,74.82
2018-05-02T07:27:07.075Z,75.40
2018-05-02T07:28:07.054Z,74.44
2018-05-02T07:29:07.032Z,74.92
2018-05-02T07:30:07.017Z,73.39
2018-05-02T07:31:07.000Z,73.30
2018-05-02T07:32:06.977Z,74.54
2018-05-02T07:33:07.050Z,75.68
2018-05-02T07:34:06.940Z,73.30
2018-05-02T07:35:06.920Z,72.16
2018-05-02T07:36:06.911Z,73.05
2018-05-02T07:37:06.885Z,72.96
2018-05-02T07:38:06.869Z,72.86
2018-05-02T07:39:06.859Z,72.76
2018-05-02T07:40:06.831Z,72.38
2018-05-02T07:41:06.813Z,72.09
2018-05-02T07:42:06.855Z,72.28
2018-05-02T07:43:06.772Z,73.52
2018-05-02T07:44:06.766Z,71.81
2018-05-02T07:45:06.733Z,70.38
2018-05-02T07:46:06.718Z,70.70
2018-05-02T07:47:06.697Z,71.46
2018-05-02T07:48:06.676Z,71.84
2018-05-02T07:49:06.666Z,72.42
2018-05-02T07:50:06.649Z,71.27
2018-05-02T07:51:06.624Z,70.98
2018-05-02T07:52:06.613Z,69.65
2018-05-02T07:53:06.590Z,69.74
2018-05-02T07:54:06.568Z,68.79
2018-05-02T07:55:06.554Z,67.40
2018-05-02T07:56:06.531Z,67.40
2018-05-02T07:57:06.514Z,66.15
2018-05-02T07:58:06.502Z,66.82
2018-05-02T07:59:06.479Z,67.40
2018-05-02T08:00:06.461Z,67.87
2018-05-02T08:01:06.439Z,67.68
2018-05-02T08:02:06.436Z,67.87
2018-05-02T08:03:06.419Z,67.40
2018-05-02T08:04:06.385Z,65.58
2018-05-02T08:05:06.366Z,65.48
2018-05-02T08:06:06.356Z,65.01
2018-05-02T08:07:06.331Z,65.58
2018-05-02T08:08:06.356Z,67.58
2018-05-02T08:09:06.299Z,67.71
2018-05-02T08:10:06.279Z,65.04
2018-05-02T08:11:06.336Z,64.37
2018-05-02T08:12:06.240Z,65.42
2018-05-02T08:13:06.220Z,66.28
2018-05-02T08:14:06.201Z,66.00
2018-05-02T08:15:06.185Z,65.04
2018-05-02T08:16:06.169Z,65.71
2018-05-02T08:17:06.150Z,65.23
2018-05-02T08:18:06.140Z,65.74
2018-05-02T08:19:06.131Z,65.45
2018-05-02T08:20:06.097Z,63.45
2018-05-02T08:21:06.080Z,63.64
2018-05-02T08:22:06.124Z,62.49
2018-05-02T08:23:06.045Z,62.49
2018-05-02T08:24:06.030Z,62.40
2018-05-02T08:25:06.009Z,62.68
2018-05-02T08:26:05.989Z,64.40
2018-05-02T08:27:05.973Z,62.59
2018-05-02T08:28:05.956Z,61.72
2018-05-02T08:29:05.943Z,62.30
2018-05-02T08:30:05.921Z,62.87
2018-05-02T08:31:05.900Z,62.49
2018-05-02T08:32:05.884Z,64.31
2018-05-02T08:33:05.870Z,63.83
2018-05-02T08:34:05.855Z,64.69
2018-05-02T08:35:05.843Z,65.36
2018-05-02T08:36:05.903Z,65.20
2018-05-02T08:37:05.799Z,65.01
2018-05-02T08:38:05.783Z,64.05
2018-05-02T08:39:05.768Z,63.86
2018-05-02T08:40:05.745Z,60.90
2018-05-02T08:41:05.728Z,60.30
2018-05-02T08:42:05.715Z,60.99
2018-05-02T08:43:05.701Z,61.72
2018-05-02T08:44:05.684Z,60.96
2018-05-02T08:45:05.665Z,60.90
2018-05-02T08:46:05.649Z,61.19
2018-05-02T08:47:05.628Z,61.38
2018-05-02T08:48:05.611Z,60.33
2018-05-02T08:49:05.590Z,60.42
2018-05-02T08:50:05.574Z,58.98
2018-05-02T08:51:05.557Z,58.70
2018-05-02T08:52:05.539Z,59.56
2018-05-02T08:53:05.521Z,62.04
2018-05-02T08:54:05.509Z,61.35
2018-05-02T08:55:05.488Z,61.25
2018-05-02T08:56:05.469Z,61.54
2018-05-02T08:57:05.453Z,61.82
2018-05-02T08:58:05.439Z,61.16
2018-05-02T08:59:05.419Z,62.87
2018-05-02T09:00:05.400Z,62.59
2018-05-02T09:01:05.382Z,62.97
2018-05-02T09:02:05.369Z,61.19
2018-05-02T09:03:05.361Z,63.76
2018-05-02T09:04:05.330Z,62.43
2018-05-02T09:05:05.316Z,63.19
2018-05-02T09:06:05.304Z,63.48
2018-05-02T09:07:05.277Z,62.71
2018-05-02T09:08:05.268Z,59.84
2018-05-02T09:09:05.252Z,59.37
2018-05-02T09:10:05.233Z,58.51
2018-05-02T09:11:05.210Z,58.32
2018-05-02T09:12:05.199Z,58.22
2018-05-02T09:13:05.176Z,58.61
2018-05-02T09:14:05.164Z,56.60
2018-05-02T09:15:05.146Z,56.12
2018-05-02T09:16:05.132Z,56.31
2018-05-02T09:17:05.111Z,56.79
2018-05-02T09:18:05.093Z,58.80
2018-05-02T09:19:05.076Z,59.27
2018-05-02T09:20:05.057Z,59.18
2018-05-02T09:21:05.040Z,57.36
2018-05-02T09:22:05.024Z,56.40
2018-05-02T09:23:05.011Z,56.21
2018-05-02T09:24:04.990Z,58.34
2018-05-02T09:25:04.974Z,59.08
2018-05-02T09:26:04.954Z,58.98
2018-05-02T09:27:04.941Z,60.06
2018-05-02T09:28:04.920Z,59.40
2018-05-02T09:29:04.907Z,58.54
2018-05-02T09:30:04.885Z,59.97
2018-05-02T09:31:04.867Z,58.34
2018-05-02T09:32:04.862Z,58.63
2018-05-02T09:33:04.838Z,59.40
2018-05-02T09:34:04.836Z,61.02
2018-05-02T09:35:04.799Z,58.92
2018-05-02T09:36:04.787Z,57.48
2018-05-02T09:37:04.774Z,56.62
2018-05-02T09:38:04.749Z,56.05
2018-05-02T09:39:04.732Z,57.01
2018-05-02T09:40:04.720Z,55.67
2018-05-02T09:41:04.709Z,55.19
2018-05-02T09:42:04.695Z,56.15
2018-05-02T09:43:04.673Z,56.34
2018-05-02T09:44:04.697Z,55.86
2018-05-02T09:45:04.632Z,53.85
2018-05-02T09:46:04.614Z,53.49
2018-05-02T09:47:04.602Z,53.97
2018-05-02T09:48:04.582Z,55.02
2018-05-02T09:49:04.566Z,54.93
2018-05-02T09:50:04.547Z,54.14
2018-05-02T09:51:04.537Z,55.47
2018-05-02T09:52:04.603Z,55.47
2018-05-02T09:53:04.502Z,55.67
2018-05-02T09:54:04.482Z,56.75
2018-05-02T09:55:04.467Z,57.13
2018-05-02T09:56:04.447Z,57.10
2018-05-02T09:57:04.438Z,56.27
2018-05-02T09:58:04.425Z,54.16
2018-05-02T09:59:04.397Z,55.02
2018-05-02T10:00:04.381Z,55.60
2018-05-02T10:01:04.371Z,53.69
2018-05-02T10:02:04.350Z,53.88
2018-05-02T10:03:04.334Z,53.97
2018-05-02T10:04:04.314Z,54.16
2018-05-02T10:05:04.298Z,53.40
2018-05-02T10:06:04.279Z,53.69
2018-05-02T10:07:04.272Z,52.34
2018-05-02T10:08:04.252Z,52.92
2018-05-02T10:09:04.302Z,52.54
2018-05-02T10:10:04.222Z,53.59
2018-05-02T10:11:04.198Z,53.02
2018-05-02T10:12:04.178Z,53.71
2018-05-02T10:13:04.166Z,52.37
2018-05-02T10:14:04.150Z,53.59
2018-05-02T10:15:04.134Z,53.91
2018-05-02T10:16:04.121Z,52.56
2018-05-02T10:17:04.098Z,49.79
2018-05-02T10:18:04.080Z,51.70
2018-05-02T10:19:04.069Z,51.51
2018-05-02T10:20:04.059Z,54.57
2018-05-02T10:21:04.031Z,56.39
2018-05-02T10:22:04.026Z,54.38
2018-05-02T10:23:04.001Z,53.81
2018-05-02T10:24:03.981Z,54.00
2018-05-02T10:25:03.983Z,54.38
2018-05-02T10:26:03.950Z,52.56
2018-05-02T10:27:03.931Z,53.81
2018-05-02T10:28:03.917Z,53.52
2018-05-02T10:29:03.900Z,53.23
2018-05-02T10:30:03.883Z,53.49
2018-05-02T10:31:03.868Z,51.87
2018-05-02T10:32:03.857Z,53.04
2018-05-02T10:33:03.840Z,53.23
2018-05-02T10:34:03.819Z,52.56
2018-05-02T10:35:03.802Z,53.23
2018-05-02T10:36:03.785Z,55.53
2018-05-02T10:37:03.780Z,53.16
2018-05-02T10:38:03.755Z,52.37
2018-05-02T10:39:03.743Z,51.92
2018-05-02T10:40:03.721Z,51.61
2018-05-02T10:41:03.712Z,51.92
2018-05-02T10:42:03.765Z,53.16
2018-05-02T10:43:03.675Z,51.92
2018-05-02T10:44:03.656Z,50.67
2018-05-02T10:45:03.638Z,48.47
2018-05-02T10:46:03.625Z,47.71
2018-05-02T10:47:03.604Z,48.25
2018-05-02T10:48:03.589Z,48.64
2018-05-02T10:49:03.574Z,49.98
2018-05-02T10:50:03.563Z,50.67
2018-05-02T10:51:03.538Z,51.15
2018-05-02T10:52:03.534Z,50.38
2018-05-02T10:53:03.514Z,48.75
2018-05-02T10:54:03.492Z,49.43
2018-05-02T10:55:03.481Z,50.67
2018-05-02T10:56:03.526Z,52.30
2018-05-02T10:57:03.447Z,51.63
2018-05-02T10:58:03.430Z,51.08
2018-05-02T10:59:03.412Z,53.28
2018-05-02T11:00:03.399Z,50.79
2018-05-02T11:01:03.386Z,48.21
2018-05-02T11:02:03.365Z,48.21
2018-05-02T11:03:03.349Z,47.82
2018-05-02T11:04:03.336Z,51.18
2018-05-02T11:05:03.340Z,53.28
2018-05-02T11:06:03.305Z,50.41
2018-05-02T11:07:03.289Z,47.25
2018-05-02T11:08:03.269Z,48.59
2018-05-02T11:09:03.256Z,49.36
2018-05-02T11:10:03.240Z,48.02
2018-05-02T11:11:03.227Z,48.97
2018-05-02T11:12:03.213Z,49.36
2018-05-02T11:13:03.189Z,47.53
2018-05-02T11:14:03.173Z,48.30
2018-05-02T11:15:03.161Z,48.21
2018-05-02T11:16:03.152Z,46.10
2018-05-02T11:17:03.134Z,50.89
2018-05-02T11:18:03.110Z,50.79
2018-05-02T11:19:03.091Z,48.40
2018-05-02T11:20:03.079Z,48.69
2018-05-02T11:21:03.067Z,45.04
2018-05-02T11:22:03.114Z,43.90
2018-05-02T11:23:03.029Z,45.04
2018-05-02T11:24:03.020Z,46.67
2018-05-02T11:25:02.999Z,49.16
2018-05-02T11:26:03.001Z,48.59
2018-05-02T11:27:02.973Z,49.16
2018-05-02T11:28:02.957Z,47.06
2018-05-02T11:29:02.944Z,46.58
2018-05-02T11:30:02.928Z,46.67
2018-05-02T11:31:02.910Z,45.52
2018-05-02T11:32:02.895Z,45.72
2018-05-02T11:33:02.890Z,46.58
2018-05-02T11:34:02.871Z,45.72
2018-05-02T11:35:02.850Z,45.33
2018-05-02T11:36:02.831Z,45.90
2018-05-02T11:37:02.809Z,45.14
2018-05-02T11:38:02.796Z,46.29
2018-05-02T11:39:02.777Z,48.30
2018-05-02T11:40:02.768Z,49.45
2018-05-02T11:41:02.755Z,48.71
2018-05-02T11:42:02.739Z,47.82
2018-05-02T11:43:02.717Z,46.86
2018-05-02T11:44:02.713Z,49.00
2018-05-02T11:45:02.700Z,46.89
2018-05-02T11:46:02.675Z,45.26
2018-05-02T11:47:02.657Z,45.74
2018-05-02T11:48:02.642Z,45.83
2018-05-02T11:49:02.631Z,45.36
2018-05-02T11:50:02.615Z,45.07
2018-05-02T11:51:02.589Z,47.17
2018-05-02T11:52:02.578Z,47.75
2018-05-02T11:53:02.561Z,46.79
2018-05-02T11:54:02.554Z,47.08
2018-05-02T11:55:02.529Z,44.97
2018-05-02T11:56:02.518Z,44.49
2018-05-02T11:57:02.500Z,45.26
2018-05-02T11:58:02.486Z,49.57
2018-05-02T11:59:02.467Z,47.27
2018-05-02T12:00:02.453Z,45.54
2018-05-02T12:01:02.439Z,45.74
2018-05-02T12:02:02.426Z,47.08
2018-05-02T12:03:02.409Z,46.12
2018-05-02T12:04:02.389Z,44.97
2018-05-02T12:05:02.377Z,46.70
2018-05-02T12:06:02.358Z,47.66
2018-05-02T12:07:02.340Z,45.16
2018-05-02T12:08:02.330Z,45.16
2018-05-02T12:09:02.311Z,44.97
2018-05-02T12:10:02.295Z,45.64
2018-05-02T12:11:02.287Z,45.16
2018-05-02T12:12:02.272Z,45.16
2018-05-02T12:13:02.249Z,45.45
2018-05-02T12:14:02.237Z,45.26
2018-05-02T12:15:02.219Z,44.59
2018-05-02T12:16:02.268Z,44.97
2018-05-02T12:17:02.190Z,46.14
2018-05-02T12:18:02.181Z,46.79
2018-05-02T12:19:02.156Z,44.97
2018-05-02T12:20:02.144Z,47.27
2018-05-02T12:21:02.129Z,45.26
2018-05-02T12:22:02.124Z,45.28
2018-05-02T12:23:02.107Z,43.74
2018-05-02T12:24:02.081Z,45.09
2018-05-02T12:25:02.078Z,43.84
2018-05-02T12:26:02.051Z,44.51
2018-05-02T12:27:02.038Z,44.90
2018-05-02T12:28:02.022Z,45.28
2018-05-02T12:29:02.016Z,43.74
2018-05-02T12:30:01.991Z,46.14
2018-05-02T12:31:01.980Z,46.72
2018-05-02T12:32:01.964Z,47.68
2018-05-02T12:33:01.946Z,46.91
2018-05-02T12:34:01.936Z,46.05
2018-05-02T12:35:01.924Z,45.47
2018-05-02T12:36:01.898Z,45.47
2018-05-02T12:37:01.881Z,48.35
2018-05-02T12:38:01.878Z,45.67
2018-05-02T12:39:01.851Z,47.97
2018-05-02T12:40:01.838Z,47.30
2018-05-02T12:41:01.821Z,47.39
2018-05-02T12:42:01.811Z,46.43
2018-05-02T12:43:01.799Z,47.01
2018-05-02T12:44:01.785Z,47.30
2018-05-02T12:45:01.762Z,43.65
2018-05-02T12:46:01.743Z,42.60
2018-05-02T12:47:01.733Z,42.88
2018-05-02T12:48:01.720Z,43.07
2018-05-02T12:49:01.697Z,47.58
2018-05-02T12:50:01.692Z,45.76
2018-05-02T12:51:01.675Z,46.24
2018-05-02T12:52:01.657Z,45.67